createdAt,value
2022-12-27T00:00:28.898Z,100632.03
2022-12-27T00:01:16.541Z,100625.81
2022-12-27T00:02:00.536Z,100573.50
2022-12-27T00:02:42.476Z,100588.78
2022-12-27T00:03:24.072Z,100587.53
2022-12-27T00:04:06.709Z,100610.41
2022-12-27T00:04:48.578Z,100626.78
2022-12-27T00:05:30.153Z,100638.69
2022-12-27T00:06:15.543Z,100642.56
2022-12-27T00:06:57.205Z,100627.75
2022-12-27T00:07:38.844Z,100642.97
2022-12-27T00:08:20.452Z,100656.31
2022-12-27T00:09:03.530Z,100659.22
2022-12-27T00:09:45.239Z,100660.03
2022-12-27T00:10:26.916Z,100658.38
2022-12-27T00:11:14.354Z,100630.38
2022-12-27T00:11:59.746Z,100652.16
2022-12-27T00:12:41.975Z,100640.91
2022-12-27T00:13:24.093Z,100672.66
2022-12-27T00:14:08.615Z,100642.84
2022-12-27T00:14:50.213Z,100672.94
2022-12-27T00:15:34.057Z,100647.00
2022-12-27T00:16:18.347Z,100668.91
2022-12-27T00:17:00.685Z,100654.59
2022-12-27T00:17:42.439Z,100673.88
2022-12-27T00:18:25.617Z,100684.56
2022-12-27T00:19:07.284Z,100675.28
2022-12-27T00:19:48.885Z,100681.38
2022-12-27T00:20:30.507Z,100684.41
2022-12-27T00:21:13.963Z,100644.59
2022-12-27T00:21:55.674Z,100690.63
2022-12-27T00:22:37.314Z,100674.84
2022-12-27T00:23:18.917Z,100675.81
2022-12-27T00:24:00.844Z,100654.16
2022-12-27T00:24:42.497Z,100666.69
2022-12-27T00:25:24.149Z,100651.13
2022-12-27T00:26:13.514Z,100657.22
2022-12-27T00:26:55.097Z,100668.59
2022-12-27T00:27:39.373Z,100655.69
2022-12-27T00:28:20.988Z,100680.94
2022-12-27T00:29:03.160Z,100677.31
2022-12-27T00:29:44.793Z,100683.00
2022-12-27T00:30:26.489Z,100679.38
2022-12-27T00:31:08.580Z,100689.06
2022-12-27T00:31:50.425Z,100672.41
2022-12-27T00:32:32.085Z,100671.31
2022-12-27T00:33:13.654Z,100643.25
2022-12-27T00:33:57.142Z,100670.75
2022-12-27T00:34:38.730Z,100633.81
2022-12-27T00:35:22.899Z,100656.31
2022-12-27T00:36:06.738Z,100663.53
2022-12-27T00:36:48.361Z,100660.19
2022-12-27T00:37:30.012Z,100663.22
2022-12-27T00:38:11.657Z,100662.09
2022-12-27T00:38:54.610Z,100638.47
2022-12-27T00:39:36.788Z,100654.56
2022-12-27T00:40:18.427Z,100611.00
2022-12-27T00:41:00.425Z,100670.66
2022-12-27T00:41:42.212Z,100593.66
2022-12-27T00:42:23.918Z,100662.22
2022-12-27T00:43:05.533Z,100661.53
2022-12-27T00:43:47.766Z,100666.03
2022-12-27T00:44:29.368Z,100638.41
2022-12-27T00:45:11.275Z,100649.22
2022-12-27T00:45:53.269Z,100667.81
2022-12-27T00:46:35.136Z,100658.63
2022-12-27T00:47:16.748Z,100663.06
2022-12-27T00:47:58.497Z,100624.81
2022-12-27T00:48:40.279Z,100655.53
2022-12-27T00:49:22.161Z,100661.47
2022-12-27T00:50:04.699Z,100673.41
2022-12-27T00:50:47.432Z,100669.09
2022-12-27T00:51:29.363Z,100663.56
2022-12-27T00:52:11.066Z,100670.19
2022-12-27T00:52:52.648Z,100537.19
2022-12-27T00:53:35.509Z,100677.53
2022-12-27T00:54:17.176Z,100663.94
2022-12-27T00:54:58.785Z,100646.94
2022-12-27T00:55:43.974Z,100680.66
2022-12-27T00:56:28.204Z,100671.22
2022-12-27T00:57:09.795Z,100676.69
2022-12-27T00:57:51.566Z,100680.09
2022-12-27T00:58:37.095Z,100685.22
2022-12-27T00:59:21.584Z,100664.13
2022-12-27T01:00:10.195Z,100679.25
2022-12-27T01:00:53.105Z,100626.75
2022-12-27T01:01:36.066Z,100680.50
2022-12-27T01:02:17.802Z,100677.66
2022-12-27T01:02:59.477Z,100678.94
2022-12-27T01:03:41.143Z,100693.16
2022-12-27T01:04:22.728Z,100625.53
2022-12-27T01:05:04.725Z,100694.84
2022-12-27T01:05:46.345Z,100664.38
2022-12-27T01:06:32.085Z,100672.75
2022-12-27T01:07:13.700Z,100684.63
2022-12-27T01:07:55.386Z,100673.81
2022-12-27T01:08:37.551Z,100699.91
2022-12-27T01:09:19.139Z,100688.50
2022-12-27T01:10:00.782Z,100703.38
2022-12-27T01:10:42.533Z,100634.91
2022-12-27T01:11:26.094Z,100698.13
2022-12-27T01:12:07.645Z,100702.53
2022-12-27T01:12:49.858Z,100696.56
2022-12-27T01:13:31.514Z,100702.28
2022-12-27T01:14:13.931Z,100711.69
2022-12-27T01:14:55.597Z,100640.34
2022-12-27T01:15:37.315Z,100711.56
2022-12-27T01:16:22.148Z,100712.94
2022-12-27T01:17:03.869Z,100714.72
2022-12-27T01:17:45.530Z,100707.47
2022-12-27T01:18:27.294Z,100709.97
2022-12-27T01:19:09.016Z,100706.50
2022-12-27T01:19:50.632Z,100685.66
2022-12-27T01:20:32.295Z,100712.84
2022-12-27T01:21:15.708Z,100704.94
2022-12-27T01:21:57.358Z,100724.19
2022-12-27T01:22:39.020Z,100717.97
2022-12-27T01:23:22.916Z,100710.47
2022-12-27T01:24:06.561Z,100700.34
2022-12-27T01:24:48.334Z,100720.59
2022-12-27T01:25:30.037Z,100697.25
2022-12-27T01:26:17.282Z,100711.50
2022-12-27T01:26:58.913Z,100680.63
2022-12-27T01:27:40.524Z,100705.28
2022-12-27T01:28:22.129Z,100716.63
2022-12-27T01:29:03.811Z,100728.59
2022-12-27T01:29:45.440Z,100720.41
2022-12-27T01:30:27.095Z,100740.91
2022-12-27T01:31:11.666Z,100649.69
2022-12-27T01:31:53.330Z,100727.34
2022-12-27T01:32:35.171Z,100719.88
2022-12-27T01:33:16.769Z,100732.72
2022-12-27T01:34:00.266Z,100730.72
2022-12-27T01:34:41.950Z,100743.47
2022-12-27T01:35:24.081Z,100725.59
2022-12-27T01:36:15.112Z,100746.81
2022-12-27T01:36:56.767Z,100721.28
2022-12-27T01:37:38.376Z,100738.22
2022-12-27T01:38:20.010Z,100710.13
2022-12-27T01:39:01.959Z,100747.06
2022-12-27T01:39:43.557Z,100737.50
2022-12-27T01:40:25.253Z,100738.44
2022-12-27T01:41:26.799Z,100716.53
2022-12-27T01:42:46.019Z,100739.69
2022-12-27T01:43:38.163Z,100673.06
2022-12-27T01:44:49.372Z,100739.94
2022-12-27T01:45:36.545Z,100748.06
2022-12-27T01:46:18.445Z,100731.97
2022-12-27T01:47:01.245Z,100662.03
2022-12-27T01:47:49.693Z,100760.47
2022-12-27T01:48:31.283Z,100722.22
2022-12-27T01:49:12.921Z,100742.34
2022-12-27T01:50:00.689Z,100743.19
2022-12-27T01:50:46.661Z,100744.16
2022-12-27T01:51:31.263Z,100758.72
2022-12-27T01:52:13.732Z,100754.06
2022-12-27T01:53:19.329Z,100736.41
2022-12-27T01:54:00.991Z,100767.53
2022-12-27T01:54:43.340Z,100760.63
2022-12-27T01:55:34.021Z,100759.81
2022-12-27T01:56:24.235Z,100775.56
2022-12-27T01:57:06.442Z,100763.41
2022-12-27T01:57:50.204Z,100758.28
2022-12-27T01:58:56.238Z,100748.13
2022-12-27T01:59:38.703Z,100747.06
2022-12-27T02:00:20.466Z,100777.72
2022-12-27T02:01:04.838Z,100766.25
2022-12-27T02:01:48.300Z,100713.56
2022-12-27T02:02:30.074Z,100747.19
2022-12-27T02:03:16.124Z,100730.28
2022-12-27T02:04:02.947Z,100777.72
2022-12-27T02:04:45.184Z,100778.47
2022-12-27T02:05:27.186Z,100767.84
2022-12-27T02:06:14.014Z,100766.50
2022-12-27T02:06:55.630Z,100775.34
2022-12-27T02:08:07.720Z,100768.41
2022-12-27T02:08:55.563Z,100777.50
2022-12-27T02:09:54.881Z,100749.00
2022-12-27T02:10:40.282Z,100744.22
2022-12-27T02:11:46.485Z,100781.22
2022-12-27T02:12:28.809Z,100762.34
2022-12-27T02:13:10.937Z,100734.81
2022-12-27T02:13:52.684Z,100776.19
2022-12-27T02:14:46.702Z,100770.94
2022-12-27T02:15:28.797Z,100732.78
2022-12-27T02:16:16.660Z,100776.44
2022-12-27T02:17:02.861Z,100706.47
2022-12-27T02:17:45.307Z,100774.66
2022-12-27T02:18:26.996Z,100791.34
2022-12-27T02:19:21.038Z,100709.53
2022-12-27T02:20:14.338Z,100778.22
2022-12-27T02:21:27.429Z,100773.09
2022-12-27T02:22:17.784Z,100783.88
2022-12-27T02:23:56.327Z,100783.25
2022-12-27T02:25:20.107Z,100789.69
2022-12-27T02:26:14.132Z,100781.09
2022-12-27T02:27:07.775Z,100799.63
2022-12-27T02:28:14.654Z,100771.81
2022-12-27T02:29:07.842Z,100777.19
2022-12-27T02:30:04.029Z,100792.69
2022-12-27T02:30:48.471Z,100785.16
2022-12-27T02:31:38.156Z,100784.56
2022-12-27T02:32:29.530Z,100791.72
2022-12-27T02:33:18.414Z,100788.25
2022-12-27T02:34:08.581Z,100792.66
2022-12-27T02:35:13.305Z,100790.19
2022-12-27T02:36:02.781Z,100809.50
2022-12-27T02:36:46.390Z,100778.97
2022-12-27T02:37:31.694Z,100789.91
2022-12-27T02:38:23.516Z,100802.94
2022-12-27T02:39:05.546Z,100789.69
2022-12-27T02:39:48.997Z,100805.44
2022-12-27T02:40:53.157Z,100809.84
2022-12-27T02:41:54.295Z,100792.31
2022-12-27T02:42:54.637Z,100802.69
2022-12-27T02:43:54.839Z,100806.16
2022-12-27T02:44:55.447Z,100806.28
2022-12-27T02:46:02.860Z,100782.03
2022-12-27T02:47:04.135Z,100811.75
2022-12-27T02:48:06.212Z,100823.81
2022-12-27T02:49:14.670Z,100797.16
2022-12-27T02:50:14.635Z,100802.56
2022-12-27T02:51:25.783Z,100758.53
2022-12-27T02:52:54.618Z,100783.25
2022-12-27T02:53:57.329Z,100824.53
2022-12-27T02:54:48.280Z,100814.03
2022-12-27T02:55:40.082Z,100818.22
2022-12-27T02:56:51.753Z,100816.44
2022-12-27T02:57:47.112Z,100785.63
2022-12-27T02:58:40.483Z,100810.56
2022-12-27T03:00:04.389Z,100824.88
2022-12-27T03:01:37.068Z,100815.22
2022-12-27T03:02:50.217Z,100808.28
2022-12-27T03:03:57.264Z,100822.75
2022-12-27T03:04:41.856Z,100820.22
2022-12-27T03:06:15.465Z,100815.94
2022-12-27T03:07:25.242Z,100820.69
2022-12-27T03:08:33.536Z,100822.34
2022-12-27T03:09:46.437Z,100824.97
2022-12-27T03:11:13.779Z,100821.66
2022-12-27T03:12:14.212Z,100810.66
2022-12-27T03:13:25.682Z,100806.50
2022-12-27T03:14:45.381Z,100825.81
2022-12-27T03:15:57.358Z,100828.31
2022-12-27T03:16:55.793Z,100811.03
2022-12-27T03:17:47.730Z,100819.41
2022-12-27T03:18:36.690Z,100818.44
2022-12-27T03:19:42.138Z,100806.72
2022-12-27T03:20:42.712Z,100759.59
2022-12-27T03:21:55.996Z,100816.88
2022-12-27T03:22:59.671Z,100816.16
2022-12-27T03:24:03.283Z,100758.91
2022-12-27T03:25:03.738Z,100796.72
2022-12-27T03:25:49.513Z,100816.28
2022-12-27T03:26:34.724Z,100827.88
2022-12-27T03:27:28.331Z,100838.16
2022-12-27T03:28:55.267Z,100831.56
2022-12-27T03:29:56.515Z,100815.47
2022-12-27T03:30:58.695Z,100845.19
2022-12-27T03:32:04.418Z,100746.75
2022-12-27T03:33:10.855Z,100832.63
2022-12-27T03:34:04.410Z,100852.94
2022-12-27T03:34:58.234Z,100840.78
2022-12-27T03:36:19.097Z,100848.66
2022-12-27T03:37:23.400Z,100844.34
2022-12-27T03:38:07.501Z,100805.78
2022-12-27T03:39:19.337Z,100822.13
2022-12-27T03:41:05.401Z,100836.09
2022-12-27T03:42:12.321Z,100836.59
2022-12-27T03:43:11.101Z,100850.75
2022-12-27T03:43:52.813Z,100847.06
2022-12-27T03:44:34.699Z,100849.53
2022-12-27T03:45:21.564Z,100847.41
2022-12-27T03:46:27.942Z,100837.88
2022-12-27T03:47:18.345Z,100844.06
2022-12-27T03:48:05.191Z,100855.41
2022-12-27T03:49:04.156Z,100823.28
2022-12-27T03:49:56.017Z,100852.78
2022-12-27T03:50:44.631Z,100846.91
2022-12-27T03:51:30.140Z,100847.66
2022-12-27T03:52:26.958Z,100848.47
2022-12-27T03:53:21.079Z,100839.53
2022-12-27T03:54:10.579Z,100861.38
2022-12-27T03:54:53.039Z,100852.56
2022-12-27T03:55:34.869Z,100866.41
2022-12-27T03:56:17.285Z,100858.25
2022-12-27T03:57:09.455Z,100846.13
2022-12-27T03:57:51.349Z,100858.66
2022-12-27T03:58:33.121Z,100825.38
2022-12-27T03:59:14.932Z,100848.66
2022-12-27T03:59:56.962Z,100826.19
2022-12-27T04:00:39.891Z,100852.34
2022-12-27T04:01:21.643Z,100855.81
2022-12-27T04:02:05.779Z,100854.84
2022-12-27T04:02:48.086Z,100851.28
2022-12-27T04:03:29.878Z,100858.31
2022-12-27T04:04:11.552Z,100851.38
2022-12-27T04:04:53.183Z,100860.22
2022-12-27T04:05:34.733Z,100849.84
2022-12-27T04:06:16.298Z,100851.72
2022-12-27T04:06:57.969Z,100855.31
2022-12-27T04:07:39.538Z,100857.09
2022-12-27T04:08:39.996Z,100864.25
2022-12-27T04:09:40.182Z,100778.81
2022-12-27T04:10:40.112Z,100857.59
2022-12-27T04:11:40.181Z,100858.66
2022-12-27T04:12:40.664Z,100823.91
2022-12-27T04:13:40.849Z,100854.00
2022-12-27T04:14:44.137Z,100855.78
2022-12-27T04:15:44.249Z,100861.72
2022-12-27T04:16:44.580Z,100834.06
2022-12-27T04:17:45.252Z,100704.56
2022-12-27T04:18:45.369Z,100836.69
2022-12-27T04:19:45.660Z,100851.22
2022-12-27T04:20:45.928Z,100853.75
2022-12-27T04:21:46.347Z,100862.44
2022-12-27T04:22:46.639Z,100844.81
2022-12-27T04:23:47.102Z,100813.06
2022-12-27T04:24:47.108Z,100834.91
2022-12-27T04:25:48.276Z,100861.28
2022-12-27T04:26:48.737Z,100855.41
2022-12-27T04:27:51.428Z,100851.97
2022-12-27T04:28:51.800Z,100850.28
2022-12-27T04:29:52.145Z,100850.66
2022-12-27T04:30:52.594Z,100860.94
2022-12-27T04:31:52.972Z,100855.53
2022-12-27T04:32:53.339Z,100828.72
2022-12-27T04:33:53.561Z,100845.41
2022-12-27T04:34:44.170Z,100857.22
2022-12-27T04:35:25.903Z,100827.03
2022-12-27T04:36:08.075Z,100867.03
2022-12-27T04:36:49.917Z,100836.09
2022-12-27T04:37:31.541Z,100849.59
2022-12-27T04:38:13.236Z,100850.78
2022-12-27T04:38:54.950Z,100800.63
2022-12-27T04:39:36.810Z,100846.25
2022-12-27T04:40:37.226Z,100838.94
2022-12-27T04:41:37.443Z,100857.47
2022-12-27T04:42:38.683Z,100854.97
2022-12-27T04:43:38.989Z,100849.94
2022-12-27T04:44:55.791Z,100837.53
2022-12-27T04:45:56.189Z,100830.13
2022-12-27T04:46:56.593Z,100853.84
2022-12-27T04:47:58.411Z,100852.91
2022-12-27T04:48:58.383Z,100833.94
2022-12-27T04:49:58.877Z,100790.97
2022-12-27T04:50:58.825Z,100857.47
2022-12-27T04:51:59.072Z,100817.59
2022-12-27T04:52:59.185Z,100858.03
2022-12-27T04:53:59.272Z,100846.97
2022-12-27T04:54:59.419Z,100856.63
2022-12-27T04:55:40.985Z,100852.22
2022-12-27T04:56:22.564Z,100852.44
2022-12-27T04:57:05.241Z,100843.34
2022-12-27T04:57:46.949Z,100874.16
2022-12-27T04:58:29.178Z,100849.94
2022-12-27T04:59:29.367Z,100847.41
2022-12-27T05:00:30.805Z,100859.09
2022-12-27T05:01:31.024Z,100860.09
2022-12-27T05:02:12.980Z,100837.84
2022-12-27T05:02:55.257Z,100874.25
2022-12-27T05:03:38.067Z,100820.41
2022-12-27T05:04:19.820Z,100839.41
2022-12-27T05:05:01.663Z,100867.47
2022-12-27T05:05:43.723Z,100815.19
2022-12-27T05:06:25.315Z,100864.34
2022-12-27T05:07:46.326Z,100848.13
2022-12-27T05:08:47.719Z,100865.09
2022-12-27T05:09:47.919Z,100853.06
2022-12-27T05:10:48.344Z,100865.59
2022-12-27T05:11:48.474Z,100857.34
2022-12-27T05:12:48.910Z,100856.59
2022-12-27T05:13:49.274Z,100882.28
2022-12-27T05:14:30.889Z,100870.22
2022-12-27T05:15:12.491Z,100793.44
2022-12-27T05:15:54.137Z,100839.34
2022-12-27T05:16:39.738Z,100873.97
2022-12-27T05:17:21.343Z,100877.84
2022-12-27T05:18:03.591Z,100870.50
2022-12-27T05:18:45.195Z,100879.84
2022-12-27T05:19:26.814Z,100883.28
2022-12-27T05:20:09.084Z,100873.50
2022-12-27T05:20:50.777Z,100884.13
2022-12-27T05:21:37.218Z,100899.28
2022-12-27T05:22:37.403Z,100845.41
2022-12-27T05:23:37.868Z,100896.41
2022-12-27T05:24:37.738Z,100884.50
2022-12-27T05:25:38.395Z,100873.84
2022-12-27T05:26:26.116Z,100901.47
2022-12-27T05:27:08.978Z,100891.31
2022-12-27T05:27:50.543Z,100891.31
2022-12-27T05:28:32.151Z,100908.38
2022-12-27T05:29:13.898Z,100872.06
2022-12-27T05:29:55.476Z,100912.66
2022-12-27T05:30:38.841Z,100912.66
2022-12-27T05:31:22.065Z,100905.63
2022-12-27T05:32:08.074Z,100878.38
2022-12-27T05:32:55.608Z,100885.81
2022-12-27T05:33:37.248Z,100894.88
2022-12-27T05:34:18.853Z,100892.59
2022-12-27T05:35:00.470Z,100902.41
2022-12-27T05:35:42.186Z,100913.13
2022-12-27T05:36:24.422Z,100914.78
2022-12-27T05:37:05.997Z,100904.53
2022-12-27T05:37:51.534Z,100895.94
2022-12-27T05:38:36.545Z,100901.19
2022-12-27T05:39:18.158Z,100903.91
2022-12-27T05:39:59.750Z,100911.91
2022-12-27T05:40:41.361Z,100890.16
2022-12-27T05:41:23.027Z,100899.25
2022-12-27T05:42:04.853Z,100904.94
2022-12-27T05:42:46.479Z,100838.88
2022-12-27T05:43:28.878Z,100902.66
2022-12-27T05:44:10.580Z,100889.13
2022-12-27T05:44:52.128Z,100913.25
2022-12-27T05:45:34.041Z,100894.88
2022-12-27T05:46:18.936Z,100905.38
2022-12-27T05:47:00.570Z,100904.88
2022-12-27T05:47:42.437Z,100887.19
2022-12-27T05:48:24.125Z,100911.78
2022-12-27T05:49:05.779Z,100903.31
2022-12-27T05:49:47.375Z,100868.16
2022-12-27T05:50:29.022Z,100903.84
2022-12-27T05:51:24.606Z,100897.06
2022-12-27T05:52:06.239Z,100847.81
2022-12-27T05:52:47.896Z,100900.75
2022-12-27T05:53:29.507Z,100918.84
2022-12-27T05:54:11.181Z,100905.75
2022-12-27T05:54:52.739Z,100905.75
2022-12-27T05:55:34.365Z,100917.41
2022-12-27T05:56:18.716Z,100900.84
2022-12-27T05:57:00.308Z,100899.06
2022-12-27T05:57:41.925Z,100895.25
2022-12-27T05:58:24.257Z,100897.88
2022-12-27T05:59:07.937Z,100890.06
2022-12-27T05:59:49.505Z,100905.25
2022-12-27T06:00:31.450Z,100897.63
2022-12-27T06:01:18.677Z,100877.25
2022-12-27T06:02:01.131Z,100895.44
2022-12-27T06:02:43.126Z,100904.47
2022-12-27T06:03:25.079Z,100888.88
2022-12-27T06:04:06.763Z,100871.22
2022-12-27T06:04:48.373Z,100882.59
2022-12-27T06:05:29.989Z,100895.91
2022-12-27T06:06:12.349Z,100822.47
2022-12-27T06:06:53.979Z,100911.69
2022-12-27T06:07:37.228Z,100894.41
2022-12-27T06:08:19.011Z,100891.50
2022-12-27T06:09:00.679Z,100904.88
2022-12-27T06:09:42.535Z,100880.75
2022-12-27T06:10:24.137Z,100914.66
2022-12-27T06:11:07.817Z,100909.84
2022-12-27T06:11:49.462Z,100908.69
2022-12-27T06:12:31.074Z,100910.34
2022-12-27T06:13:12.707Z,100925.56
2022-12-27T06:13:54.570Z,100825.50
2022-12-27T06:14:36.191Z,100901.69
2022-12-27T06:15:17.843Z,100908.91
2022-12-27T06:16:01.278Z,100833.59
2022-12-27T06:16:43.319Z,100900.44
2022-12-27T06:17:25.004Z,100856.72
2022-12-27T06:18:06.743Z,100893.41
2022-12-27T06:18:49.426Z,100823.44
2022-12-27T06:19:31.019Z,100922.41
2022-12-27T06:20:12.617Z,100810.09
2022-12-27T06:20:54.207Z,100911.25
2022-12-27T06:21:35.855Z,100908.19
2022-12-27T06:22:17.443Z,100884.63
2022-12-27T06:23:00.255Z,100858.69
2022-12-27T06:23:47.540Z,100916.66
2022-12-27T06:24:29.124Z,100842.69
2022-12-27T06:25:14.366Z,100923.38
2022-12-27T06:25:56.417Z,100908.06
2022-12-27T06:26:38.032Z,100918.84
2022-12-27T06:27:19.616Z,100909.75
2022-12-27T06:28:01.237Z,100907.97
2022-12-27T06:28:43.210Z,100926.69
2022-12-27T06:29:24.783Z,100923.69
2022-12-27T06:30:07.815Z,100910.41
2022-12-27T06:30:50.544Z,100927.63
2022-12-27T06:31:32.345Z,100943.25
2022-12-27T06:32:15.929Z,100931.84
2022-12-27T06:32:57.588Z,100927.63
2022-12-27T06:33:39.385Z,100926.38
2022-12-27T06:34:20.966Z,100948.91
2022-12-27T06:35:02.684Z,100940.31
2022-12-27T06:35:44.305Z,100934.63
2022-12-27T06:36:27.582Z,100938.72
2022-12-27T06:37:09.285Z,100948.16
2022-12-27T06:37:50.886Z,100943.75
2022-12-27T06:38:32.498Z,100938.31
2022-12-27T06:39:14.120Z,100906.28
2022-12-27T06:39:57.175Z,100918.59
2022-12-27T06:40:38.993Z,100935.22
2022-12-27T06:41:20.625Z,100937.66
2022-12-27T06:42:02.256Z,100896.81
2022-12-27T06:42:43.843Z,100923.50
2022-12-27T06:43:25.480Z,100932.38
2022-12-27T06:44:07.683Z,100929.28
2022-12-27T06:44:49.277Z,100928.84
2022-12-27T06:45:31.021Z,100895.00
2022-12-27T06:46:17.750Z,100943.06
2022-12-27T06:47:00.096Z,100924.56
2022-12-27T06:47:41.715Z,100938.03
2022-12-27T06:48:23.967Z,100944.91
2022-12-27T06:49:05.652Z,100906.59
2022-12-27T06:49:47.265Z,100937.66
2022-12-27T06:50:28.900Z,100938.63
2022-12-27T06:51:12.186Z,100948.16
2022-12-27T06:51:59.282Z,100942.06
2022-12-27T06:52:41.443Z,100871.34
2022-12-27T06:53:23.374Z,100927.28
2022-12-27T06:54:05.022Z,100937.56
2022-12-27T06:54:46.840Z,100934.00
2022-12-27T06:55:28.453Z,100861.94
2022-12-27T06:56:12.540Z,100880.13
2022-12-27T06:56:56.743Z,100924.56
2022-12-27T06:57:38.383Z,100921.59
2022-12-27T06:58:20.650Z,100932.88
2022-12-27T06:59:02.423Z,100946.19
2022-12-27T06:59:46.044Z,100897.47
2022-12-27T07:00:31.073Z,100910.81
2022-12-27T07:01:12.757Z,100937.50
2022-12-27T07:01:54.709Z,100934.88
2022-12-27T07:02:38.039Z,100892.00
2022-12-27T07:03:19.841Z,100947.03
2022-12-27T07:04:01.771Z,100948.72
2022-12-27T07:04:43.454Z,100938.44
2022-12-27T07:05:25.105Z,100959.00
2022-12-27T07:06:09.136Z,100941.50
2022-12-27T07:06:50.773Z,100957.78
2022-12-27T07:07:32.437Z,100949.91
2022-12-27T07:08:14.181Z,100956.84
2022-12-27T07:08:56.911Z,100947.28
2022-12-27T07:09:38.549Z,100932.47
2022-12-27T07:10:20.398Z,100956.13
2022-12-27T07:11:07.912Z,100950.88
2022-12-27T07:11:50.161Z,100962.56
2022-12-27T07:12:36.402Z,100950.03
2022-12-27T07:13:18.412Z,100966.72
2022-12-27T07:14:00.065Z,100948.34
2022-12-27T07:14:41.654Z,100944.91
2022-12-27T07:15:23.618Z,100939.06
2022-12-27T07:16:07.330Z,100959.78
2022-12-27T07:16:49.910Z,100924.13
2022-12-27T07:17:31.546Z,100959.78
2022-12-27T07:18:13.254Z,100939.06
2022-12-27T07:18:56.997Z,100945.88
2022-12-27T07:19:38.828Z,100958.25
2022-12-27T07:20:20.521Z,100950.88
2022-12-27T07:21:07.557Z,100956.84
2022-12-27T07:21:49.173Z,100949.91
2022-12-27T07:22:31.023Z,100963.75
2022-12-27T07:23:19.248Z,100955.06
2022-12-27T07:24:01.234Z,100969.00
2022-12-27T07:24:42.852Z,100955.91
2022-12-27T07:25:24.425Z,100949.69
2022-12-27T07:26:08.950Z,100911.00
2022-12-27T07:26:50.509Z,100949.69
2022-12-27T07:27:36.591Z,100844.00
2022-12-27T07:28:18.212Z,100950.88
2022-12-27T07:29:01.999Z,100830.34
2022-12-27T07:29:45.724Z,100915.75
2022-12-27T07:30:29.346Z,100930.91
2022-12-27T07:31:20.310Z,100954.44
2022-12-27T07:32:02.059Z,100936.03
2022-12-27T07:32:43.684Z,100959.22
2022-12-27T07:33:25.400Z,100925.63
2022-12-27T07:34:07.106Z,100927.75
2022-12-27T07:34:48.708Z,100939.72
2022-12-27T07:35:30.576Z,100963.06
2022-12-27T07:36:15.436Z,100946.44
2022-12-27T07:36:57.049Z,100956.97
2022-12-27T07:37:38.609Z,100927.44
2022-12-27T07:38:20.212Z,100957.69
2022-12-27T07:39:02.056Z,100881.69
2022-12-27T07:39:45.071Z,100938.97
2022-12-27T07:40:26.732Z,100965.94
2022-12-27T07:41:10.318Z,100947.53
2022-12-27T07:41:52.013Z,100958.81
2022-12-27T07:42:33.715Z,100958.03
2022-12-27T07:43:15.337Z,100950.81
2022-12-27T07:43:57.100Z,100962.16
2022-12-27T07:44:38.879Z,100930.25
2022-12-27T07:45:20.516Z,100965.41
2022-12-27T07:46:16.667Z,100963.25
2022-12-27T07:46:58.297Z,100971.00
2022-12-27T07:47:40.609Z,100931.38
2022-12-27T07:48:22.197Z,100942.00
2022-12-27T07:49:03.910Z,100957.91
2022-12-27T07:49:45.584Z,100968.19
2022-12-27T07:50:27.163Z,100966.72
2022-12-27T07:51:08.997Z,100910.25
2022-12-27T07:51:50.652Z,100963.16
2022-12-27T07:52:32.216Z,100829.44
2022-12-27T07:53:13.788Z,100954.41
2022-12-27T07:53:55.610Z,100973.31
2022-12-27T07:54:37.254Z,100939.97
2022-12-27T07:55:18.857Z,100971.63
2022-12-27T07:56:06.969Z,100966.97
2022-12-27T07:56:48.604Z,100947.03
2022-12-27T07:57:30.255Z,100973.53
2022-12-27T07:58:11.881Z,100971.00
2022-12-27T07:58:56.177Z,100970.66
2022-12-27T07:59:37.974Z,100950.78
2022-12-27T08:00:19.887Z,100912.72
2022-12-27T08:01:03.587Z,100892.06
2022-12-27T08:02:03.806Z,100954.91
2022-12-27T08:02:47.324Z,100964.78
2022-12-27T08:03:28.963Z,100979.78
2022-12-27T08:04:10.772Z,100965.00
2022-12-27T08:04:52.402Z,100964.56
2022-12-27T08:05:34.063Z,100938.00
2022-12-27T08:06:29.825Z,100968.50
2022-12-27T08:07:18.455Z,100970.28
2022-12-27T08:08:02.427Z,100965.78
2022-12-27T08:08:45.112Z,100984.88
2022-12-27T08:09:32.002Z,100955.03
2022-12-27T08:10:13.666Z,100889.03
2022-12-27T08:10:58.261Z,100948.44
2022-12-27T08:11:42.277Z,100948.31
2022-12-27T08:12:23.964Z,100943.53
2022-12-27T08:13:05.553Z,100960.25
2022-12-27T08:13:47.844Z,100954.13
2022-12-27T08:14:29.479Z,100989.94
2022-12-27T08:15:12.313Z,100971.59
2022-12-27T08:15:55.093Z,100966.28
2022-12-27T08:16:36.981Z,100957.22
2022-12-27T08:17:27.089Z,100986.38
2022-12-27T08:18:08.881Z,100968.44
2022-12-27T08:18:50.969Z,100971.25
2022-12-27T08:19:32.715Z,100960.47
2022-12-27T08:20:14.681Z,100976.47
2022-12-27T08:20:56.384Z,100970.28
2022-12-27T08:21:38.314Z,100967.19
2022-12-27T08:22:20.974Z,100964.09
2022-12-27T08:23:02.795Z,100971.88
2022-12-27T08:23:44.677Z,100945.81
2022-12-27T08:24:26.338Z,100950.72
2022-12-27T08:25:08.422Z,100959.63
2022-12-27T08:25:50.090Z,100968.09
2022-12-27T08:26:31.783Z,100968.28
2022-12-27T08:27:13.461Z,100942.75
2022-12-27T08:28:05.976Z,100980.72
2022-12-27T08:28:47.612Z,100877.28
2022-12-27T08:29:29.271Z,100972.69
2022-12-27T08:30:11.223Z,100947.44
2022-12-27T08:30:52.856Z,100904.88
2022-12-27T08:31:34.594Z,100977.56
2022-12-27T08:32:16.685Z,100984.44
2022-12-27T08:32:58.393Z,100974.03
2022-12-27T08:33:41.838Z,100981.94
2022-12-27T08:34:23.435Z,100957.84
2022-12-27T08:35:33.395Z,100990.91
2022-12-27T08:36:45.068Z,100973.41
2022-12-27T08:37:10.776Z,100971.19
2022-12-27T08:37:52.518Z,100960.81
2022-12-27T08:38:34.735Z,100961.78
2022-12-27T08:39:16.389Z,100965.97
2022-12-27T08:40:02.642Z,100971.94
2022-12-27T08:40:46.265Z,100957.97
2022-12-27T08:41:27.923Z,100971.34
2022-12-27T08:42:13.059Z,100973.97
2022-12-27T08:42:54.691Z,100964.66
2022-12-27T08:43:36.393Z,100970.50
2022-12-27T08:44:18.023Z,100936.72
2022-12-27T08:44:59.884Z,100942.94
2022-12-27T08:45:41.692Z,100969.56
2022-12-27T08:46:23.412Z,100916.44
2022-12-27T08:47:05.646Z,100964.44
2022-12-27T08:47:47.324Z,100973.53
2022-12-27T08:48:31.248Z,100941.06
2022-12-27T08:49:13.010Z,100969.22
2022-12-27T08:49:54.625Z,100917.16
2022-12-27T08:50:36.329Z,100974.84
2022-12-27T08:51:31.382Z,100978.75
2022-12-27T08:52:17.499Z,100979.47
2022-12-27T08:53:01.051Z,100973.84
2022-12-27T08:53:42.670Z,100968.31
2022-12-27T08:54:24.364Z,100960.41
2022-12-27T08:55:06.579Z,100954.91
2022-12-27T08:55:48.231Z,100893.22
2022-12-27T08:56:29.868Z,100967.47
2022-12-27T08:57:11.600Z,100962.06
2022-12-27T08:58:13.820Z,100972.44